createdAt,value
2017-11-30T00:00:30.502Z,3.02
2017-11-30T00:03:00.725Z,3.02
2017-11-30T00:05:30.201Z,3.00
2017-11-30T00:07:57.998Z,2.95
2017-11-30T00:10:29.434Z,2.92
2017-11-30T00:12:59.977Z,2.93
2017-11-30T00:15:29.469Z,2.90
2017-11-30T00:27:44.511Z,2.94
2017-11-30T00:30:14.878Z,2.95
2017-11-30T00:42:40.852Z,2.88
2017-11-30T00:45:09.446Z,2.91
2017-11-30T00:47:37.881Z,2.87
2017-11-30T00:50:05.557Z,2.84
2017-11-30T00:52:33.221Z,2.85
2017-11-30T00:55:01.240Z,2.85
2017-11-30T00:57:29.656Z,2.84
2017-11-30T00:59:58.565Z,2.84
2017-11-30T01:02:26.950Z,2.81
2017-11-30T01:04:57.578Z,2.78
2017-11-30T01:07:27.978Z,2.76
2017-11-30T01:09:57.883Z,2.75
2017-11-30T01:12:27.740Z,2.77
2017-11-30T01:14:56.728Z,2.76
2017-11-30T01:17:26.040Z,2.81
2017-11-30T01:19:53.688Z,2.80
2017-11-30T01:22:25.657Z,2.83
2017-11-30T01:24:55.614Z,2.84
2017-11-30T01:27:23.596Z,2.86
2017-11-30T01:29:53.440Z,2.90
2017-11-30T01:32:22.954Z,2.91
2017-11-30T01:34:50.686Z,2.89
2017-11-30T01:37:20.119Z,2.89
2017-11-30T01:39:48.751Z,2.89
2017-11-30T01:42:16.597Z,2.86
2017-11-30T01:44:44.280Z,2.81
2017-11-30T01:47:13.497Z,2.82
2017-11-30T01:49:41.176Z,2.85
2017-11-30T01:52:08.864Z,2.86
2017-11-30T01:54:38.793Z,2.87
2017-11-30T01:57:08.425Z,2.84
2017-11-30T01:59:36.996Z,2.82
2017-11-30T02:02:05.603Z,2.77
2017-11-30T02:04:34.290Z,2.77
2017-11-30T02:07:07.543Z,2.74
2017-11-30T02:19:20.480Z,2.68
2017-11-30T02:21:48.351Z,2.66
2017-11-30T02:24:18.589Z,2.67
2017-11-30T02:26:47.066Z,2.65
2017-11-30T02:29:14.940Z,2.65
2017-11-30T02:31:43.114Z,2.63
2017-11-30T02:34:12.596Z,2.62
2017-11-30T02:36:40.295Z,2.65
2017-11-30T02:39:08.764Z,2.67
2017-11-30T02:41:36.610Z,2.65
2017-11-30T02:44:04.276Z,2.64
2017-11-30T02:46:33.628Z,2.61
2017-11-30T02:49:01.418Z,2.56
2017-11-30T02:51:31.964Z,2.51
2017-11-30T02:54:00.367Z,2.53
2017-11-30T02:56:28.077Z,2.56
2017-11-30T02:58:58.386Z,2.60
2017-11-30T03:01:26.883Z,2.61
2017-11-30T03:03:57.170Z,2.59
2017-11-30T03:06:25.762Z,2.56
2017-11-30T03:08:55.812Z,2.56
2017-11-30T03:11:25.398Z,2.56
2017-11-30T03:13:55.119Z,2.53
2017-11-30T03:16:25.655Z,2.56
2017-11-30T03:18:53.496Z,2.55
2017-11-30T03:21:22.003Z,2.57
2017-11-30T03:23:49.705Z,2.55
2017-11-30T03:26:20.823Z,2.50
2017-11-30T03:28:48.561Z,2.47
2017-11-30T03:31:16.224Z,2.49
2017-11-30T03:33:45.504Z,2.47
2017-11-30T03:36:16.553Z,2.49
2017-11-30T03:38:47.807Z,2.45
2017-11-30T03:51:01.359Z,2.36
2017-11-30T03:53:29.118Z,2.36
2017-11-30T03:55:58.421Z,2.34
2017-11-30T03:58:26.109Z,2.36
2017-11-30T04:00:56.473Z,2.33
2017-11-30T04:03:25.905Z,2.35
2017-11-30T04:05:57.076Z,2.32
2017-11-30T04:08:26.391Z,2.31
2017-11-30T04:10:56.859Z,2.32
2017-11-30T04:13:26.562Z,2.32
2017-11-30T04:15:54.673Z,2.32
2017-11-30T04:18:23.912Z,2.34
2017-11-30T04:20:53.781Z,2.37
2017-11-30T04:23:21.485Z,2.35
2017-11-30T04:25:51.091Z,2.34
2017-11-30T04:28:18.905Z,2.33
2017-11-30T04:30:49.724Z,2.28
2017-11-30T04:33:17.376Z,2.22
2017-11-30T04:35:47.151Z,2.22
2017-11-30T04:38:15.801Z,2.22
2017-11-30T04:40:45.282Z,2.22
2017-11-30T04:43:13.795Z,2.21
2017-11-30T04:45:43.308Z,2.22
2017-11-30T04:48:15.241Z,2.22
2017-11-30T04:50:43.705Z,2.18
2017-11-30T04:53:12.493Z,2.12
2017-11-30T04:55:41.804Z,2.11
2017-11-30T04:58:10.294Z,2.09
2017-11-30T05:00:37.975Z,2.03
2017-11-30T05:03:07.342Z,2.05
2017-11-30T05:05:35.561Z,2.04
2017-11-30T05:08:04.702Z,1.98
2017-11-30T05:10:33.213Z,1.97
2017-11-30T05:13:01.052Z,1.91
2017-11-30T05:15:28.765Z,1.85
2017-11-30T05:17:59.569Z,1.80
2017-11-30T05:20:27.633Z,1.77
2017-11-30T05:22:55.323Z,1.71
2017-11-30T05:25:24.580Z,1.70
2017-11-30T05:27:55.014Z,1.67
2017-11-30T05:30:23.447Z,1.59
2017-11-30T05:32:53.262Z,1.58
2017-11-30T05:35:22.724Z,1.54
2017-11-30T05:37:50.609Z,1.53
2017-11-30T05:40:18.294Z,1.44
2017-11-30T05:42:47.607Z,1.39
2017-11-30T05:45:16.112Z,1.35
2017-11-30T05:47:46.542Z,1.31
2017-11-30T05:50:18.760Z,1.30
2017-11-30T05:52:48.315Z,1.27
2017-11-30T05:55:19.153Z,1.27
2017-11-30T05:57:48.659Z,1.28
2017-11-30T06:00:18.968Z,1.26
2017-11-30T06:02:49.649Z,1.18
2017-11-30T06:05:19.323Z,1.17
2017-11-30T06:07:49.767Z,1.16
2017-11-30T06:10:18.242Z,1.11
2017-11-30T06:12:49.578Z,1.13
2017-11-30T06:15:18.674Z,1.13
2017-11-30T06:17:49.913Z,1.11
2017-11-30T06:20:20.897Z,1.09
2017-11-30T06:22:49.458Z,1.07
2017-11-30T06:25:19.256Z,1.09
2017-11-30T06:27:52.207Z,1.05
2017-11-30T06:30:21.759Z,1.04
2017-11-30T06:32:49.626Z,1.08
2017-11-30T06:35:17.806Z,1.09
2017-11-30T06:37:46.395Z,1.09
2017-11-30T06:40:15.829Z,1.10
2017-11-30T06:42:44.919Z,1.11
2017-11-30T06:45:14.348Z,1.16
2017-11-30T06:47:43.914Z,1.16
2017-11-30T06:50:17.001Z,1.15
2017-11-30T06:52:44.840Z,1.13
2017-11-30T06:55:15.238Z,1.15
2017-11-30T06:57:45.622Z,1.18
2017-11-30T07:10:00.292Z,1.04
2017-11-30T07:12:30.644Z,1.04
2017-11-30T07:15:00.357Z,1.04
2017-11-30T07:17:30.633Z,1.04
2017-11-30T07:20:00.295Z,1.06
2017-11-30T07:22:30.696Z,1.09
2017-11-30T07:25:00.667Z,1.14
2017-11-30T07:37:13.486Z,1.24
2017-11-30T07:39:42.233Z,1.30
2017-11-30T07:42:15.246Z,1.32
2017-11-30T07:44:48.567Z,1.31
2017-11-30T07:47:18.792Z,1.32
2017-11-30T07:49:48.061Z,1.35
2017-11-30T08:02:03.253Z,1.44
2017-11-30T08:04:32.752Z,1.45
2017-11-30T08:07:05.067Z,1.45
2017-11-30T08:19:18.669Z,1.51
2017-11-30T08:21:46.591Z,1.55
2017-11-30T08:24:16.704Z,1.59
2017-11-30T08:26:47.980Z,1.63
2017-11-30T08:29:18.449Z,1.63
2017-11-30T08:31:54.502Z,1.63
2017-11-30T08:34:31.762Z,1.64
2017-11-30T08:37:00.787Z,1.67
2017-11-30T08:39:30.769Z,1.69
2017-11-30T08:42:03.826Z,1.67
2017-11-30T08:44:36.310Z,1.72
2017-11-30T08:47:07.680Z,1.77
2017-11-30T08:49:41.568Z,1.82
2017-11-30T08:52:10.665Z,1.86
2017-11-30T08:54:43.804Z,1.88
2017-11-30T08:57:14.401Z,1.89
2017-11-30T08:59:47.354Z,1.92
2017-11-30T09:02:17.205Z,1.96
2017-11-30T09:07:19.448Z,2.06
2017-11-30T09:09:53.191Z,2.03
2017-11-30T09:12:25.788Z,2.08
2017-11-30T09:14:58.387Z,2.14
2017-11-30T09:17:29.664Z,2.14
2017-11-30T09:20:00.817Z,2.16
2017-11-30T09:22:32.728Z,2.24
2017-11-30T09:25:01.310Z,2.29
2017-11-30T09:27:31.381Z,2.32
2017-11-30T09:29:59.143Z,2.33
2017-11-30T09:32:28.230Z,2.36
2017-11-30T09:34:58.527Z,2.32
2017-11-30T09:37:26.985Z,2.31
2017-11-30T09:39:57.829Z,2.33
2017-11-30T09:42:27.185Z,2.33
2017-11-30T09:44:56.287Z,2.36
2017-11-30T09:47:25.329Z,2.43
2017-11-30T09:49:54.787Z,2.46
2017-11-30T09:52:25.650Z,2.54
2017-11-30T09:54:55.981Z,2.56
2017-11-30T09:57:26.328Z,2.53
2017-11-30T09:59:54.914Z,2.53
2017-11-30T10:02:26.661Z,2.57
2017-11-30T10:04:56.998Z,2.54
2017-11-30T10:07:29.365Z,2.52
2017-11-30T10:09:59.312Z,2.56
2017-11-30T10:12:28.629Z,2.57
2017-11-30T10:14:56.368Z,2.59
2017-11-30T10:17:24.841Z,2.57
2017-11-30T10:19:54.867Z,2.58
2017-11-30T10:22:22.740Z,2.57
2017-11-30T10:24:51.316Z,2.54
2017-11-30T10:27:21.815Z,2.57
2017-11-30T10:29:50.337Z,2.59
2017-11-30T10:32:20.674Z,2.59
2017-11-30T10:44:43.724Z,2.58
2017-11-30T10:47:12.382Z,2.62
2017-11-30T10:49:41.363Z,2.67
2017-11-30T10:52:11.725Z,2.72
2017-11-30T10:54:39.489Z,2.65
2017-11-30T10:57:09.131Z,2.73
2017-11-30T10:59:36.939Z,2.76
2017-11-30T11:02:05.915Z,2.79
2017-11-30T11:04:35.317Z,2.83
2017-11-30T11:07:04.175Z,2.83
2017-11-30T11:09:32.118Z,2.83
2017-11-30T11:12:01.712Z,2.85
2017-11-30T11:14:31.140Z,2.91
2017-11-30T11:16:58.882Z,2.89
2017-11-30T11:19:28.929Z,2.86
2017-11-30T11:21:57.413Z,2.89
2017-11-30T11:24:26.915Z,2.88
2017-11-30T11:26:55.402Z,2.83
2017-11-30T11:29:23.135Z,2.86
2017-11-30T11:31:52.424Z,2.89
2017-11-30T11:34:20.173Z,2.88
2017-11-30T11:36:49.465Z,2.77
2017-11-30T11:39:18.236Z,2.73
2017-11-30T11:41:47.687Z,2.73
2017-11-30T11:44:15.493Z,2.74
2017-11-30T11:46:46.321Z,2.75
2017-11-30T11:49:16.665Z,2.74
2017-11-30T11:51:48.941Z,2.85
2017-11-30T11:54:18.814Z,2.91
2017-11-30T11:56:46.574Z,3.01
2017-11-30T11:59:18.005Z,3.06
2017-11-30T12:01:46.587Z,3.06
2017-11-30T12:04:19.498Z,3.07
2017-11-30T12:06:50.047Z,3.19
2017-11-30T12:09:22.679Z,3.25
2017-11-30T12:11:56.831Z,3.25
2017-11-30T12:14:25.330Z,3.21
2017-11-30T12:16:54.766Z,3.11
2017-11-30T12:19:24.704Z,3.04
2017-11-30T12:21:52.463Z,3.05
2017-11-30T12:24:24.327Z,3.16
2017-11-30T12:26:52.341Z,3.30
2017-11-30T12:29:22.625Z,3.30
2017-11-30T12:31:51.110Z,3.26
2017-11-30T12:34:21.974Z,3.22
2017-11-30T12:36:51.749Z,3.22
2017-11-30T12:39:19.425Z,3.25
2017-11-30T12:41:49.017Z,3.25
2017-11-30T12:44:20.095Z,3.19
2017-11-30T12:46:49.571Z,3.23
2017-11-30T12:49:20.020Z,3.25
2017-11-30T12:51:49.508Z,3.17
2017-11-30T12:54:19.862Z,3.14
2017-11-30T12:56:47.574Z,3.16
2017-11-30T12:59:18.231Z,3.12
2017-11-30T13:01:47.523Z,3.06
2017-11-30T13:04:18.142Z,3.01
2017-11-30T13:06:48.504Z,3.04
2017-11-30T13:09:18.892Z,2.97
2017-11-30T13:11:48.312Z,2.89
2017-11-30T13:14:16.367Z,2.82
2017-11-30T13:16:44.031Z,2.75
2017-11-30T13:19:12.026Z,2.63
2017-11-30T13:21:42.327Z,2.53
2017-11-30T13:24:11.721Z,2.52
2017-11-30T13:26:39.426Z,2.52
2017-11-30T13:29:09.640Z,2.60
2017-11-30T13:31:40.554Z,2.70
2017-11-30T13:34:10.223Z,2.74
2017-11-30T13:36:39.560Z,2.73
2017-11-30T13:39:08.106Z,2.68
2017-11-30T13:41:35.802Z,2.60
2017-11-30T13:44:03.486Z,2.54
2017-11-30T13:46:32.824Z,2.52
2017-11-30T13:49:05.271Z,2.49
2017-11-30T13:51:33.033Z,2.50
2017-11-30T13:54:01.986Z,2.52
2017-11-30T13:56:33.041Z,2.56
2017-11-30T13:59:00.898Z,2.57
2017-11-30T14:01:29.300Z,2.57
2017-11-30T14:03:57.012Z,2.59
2017-11-30T14:06:26.661Z,2.56
2017-11-30T14:08:55.144Z,2.60
2017-11-30T14:11:22.837Z,2.61
2017-11-30T14:13:51.065Z,2.58
2017-11-30T14:16:19.172Z,2.61
2017-11-30T14:18:51.175Z,2.64
2017-11-30T14:21:18.935Z,2.66
2017-11-30T14:23:46.701Z,2.69
2017-11-30T14:26:16.141Z,2.67
2017-11-30T14:28:45.102Z,2.66
2017-11-30T14:31:12.833Z,2.69
2017-11-30T14:33:45.591Z,2.69
2017-11-30T14:36:15.157Z,2.70
2017-11-30T14:38:42.891Z,2.69
2017-11-30T14:41:12.246Z,2.67
2017-11-30T14:43:41.703Z,2.66
2017-11-30T14:46:12.013Z,2.66
2017-11-30T14:48:40.019Z,2.65
2017-11-30T14:51:07.713Z,2.65
2017-11-30T14:53:37.571Z,2.67
2017-11-30T14:56:06.935Z,2.68
2017-11-30T14:58:35.244Z,2.66
2017-11-30T15:01:03.019Z,2.66
2017-11-30T15:03:31.879Z,2.60
2017-11-30T15:06:02.207Z,2.55
2017-11-30T15:08:32.753Z,2.49
2017-11-30T15:11:02.898Z,2.46
2017-11-30T15:13:32.370Z,2.42
2017-11-30T15:16:00.155Z,2.41
2017-11-30T15:18:31.033Z,2.40
2017-11-30T15:21:01.357Z,2.34
2017-11-30T15:33:15.916Z,2.24
2017-11-30T15:35:44.373Z,2.23
2017-11-30T15:38:14.214Z,2.22
2017-11-30T15:40:43.189Z,2.21
2017-11-30T15:43:11.671Z,2.15
2017-11-30T15:45:40.458Z,2.15
2017-11-30T15:48:11.466Z,2.14
2017-11-30T15:50:39.257Z,2.13
2017-11-30T15:53:09.544Z,2.16
2017-11-30T15:55:39.686Z,2.15
2017-11-30T15:58:07.380Z,2.15
2017-11-30T16:00:37.715Z,2.16
2017-11-30T16:03:07.266Z,2.15
2017-11-30T16:05:38.996Z,2.13
2017-11-30T16:08:06.703Z,2.12
2017-11-30T16:10:35.108Z,2.08
2017-11-30T16:13:06.264Z,2.04
2017-11-30T16:15:35.720Z,2.00
2017-11-30T16:18:04.165Z,1.95
2017-11-30T16:20:36.464Z,1.88
2017-11-30T16:23:04.938Z,1.85
2017-11-30T16:25:33.316Z,1.83
2017-11-30T16:28:04.814Z,1.83
2017-11-30T16:30:34.202Z,1.80
2017-11-30T16:33:05.541Z,1.78
2017-11-30T16:35:37.497Z,1.76
2017-11-30T16:38:05.972Z,1.74
2017-11-30T16:40:45.819Z,1.74
2017-11-30T16:43:15.207Z,1.72
2017-11-30T16:45:45.488Z,1.67
2017-11-30T16:48:13.310Z,1.66
2017-11-30T16:50:42.596Z,1.66
2017-11-30T16:53:12.018Z,1.63
2017-11-30T16:55:39.723Z,1.60
2017-11-30T16:58:10.516Z,1.59
2017-11-30T17:00:41.091Z,1.60
2017-11-30T17:03:08.912Z,1.61
2017-11-30T17:05:38.917Z,1.62
2017-11-30T17:08:06.690Z,1.64
2017-11-30T17:10:36.096Z,1.67
2017-11-30T17:13:04.440Z,1.70
2017-11-30T17:15:33.840Z,1.73
2017-11-30T17:18:03.660Z,1.75
2017-11-30T17:20:32.499Z,1.75
2017-11-30T17:23:04.410Z,1.73
2017-11-30T17:25:34.784Z,1.73
2017-11-30T17:28:03.689Z,1.72
2017-11-30T17:30:32.882Z,1.69
2017-11-30T17:33:01.223Z,1.68
2017-11-30T17:35:28.950Z,1.66
2017-11-30T17:37:57.725Z,1.63
2017-11-30T17:40:27.170Z,1.63
2017-11-30T17:42:55.490Z,1.61
2017-11-30T17:45:26.639Z,1.60
2017-11-30T17:48:00.074Z,1.63
2017-11-30T17:50:32.051Z,1.63
2017-11-30T17:53:05.006Z,1.67
2017-11-30T17:55:33.622Z,1.69
2017-11-30T17:58:06.053Z,1.70
2017-11-30T18:00:39.209Z,1.70
2017-11-30T18:16:07.644Z,1.65
2017-11-30T18:18:38.605Z,1.65
2017-11-30T18:21:10.001Z,1.66
2017-11-30T18:23:42.324Z,1.65
2017-11-30T18:26:11.000Z,1.66
2017-11-30T18:28:41.900Z,1.66
2017-11-30T18:31:16.843Z,1.67
2017-11-30T18:43:32.371Z,1.68
2017-11-30T18:46:01.621Z,1.67
2017-11-30T18:48:31.642Z,1.67
2017-11-30T18:51:01.362Z,1.69
2017-11-30T18:53:29.517Z,1.70
2017-11-30T18:55:58.433Z,1.66
2017-11-30T18:58:27.051Z,1.61
2017-11-30T19:00:56.815Z,1.58
2017-11-30T19:03:26.897Z,1.56
2017-11-30T19:05:57.949Z,1.55
2017-11-30T19:08:27.432Z,1.55
2017-11-30T19:10:55.270Z,1.59
2017-11-30T19:13:28.307Z,1.59
2017-11-30T19:15:56.938Z,1.61
2017-11-30T19:18:27.669Z,1.62
2017-11-30T19:20:58.831Z,1.63
2017-11-30T19:23:27.010Z,1.63
2017-11-30T19:26:00.755Z,1.60
2017-11-30T19:28:30.011Z,1.57
2017-11-30T19:30:59.527Z,1.56
2017-11-30T19:33:28.666Z,1.53
2017-11-30T19:36:00.276Z,1.52
2017-11-30T19:38:31.031Z,1.52
2017-11-30T19:41:00.519Z,1.50
2017-11-30T19:43:33.236Z,1.47
2017-11-30T19:48:38.706Z,1.41
2017-11-30T19:51:06.634Z,1.37
2017-11-30T19:53:38.628Z,1.34
2017-11-30T19:56:08.406Z,1.31
2017-11-30T19:58:36.504Z,1.30
2017-11-30T20:01:06.822Z,1.26
2017-11-30T20:03:37.547Z,1.27
2017-11-30T20:06:08.809Z,1.28
2017-11-30T20:08:38.450Z,1.26
2017-11-30T20:11:07.251Z,1.23
2017-11-30T20:13:37.942Z,1.20
2017-11-30T20:16:08.922Z,1.20
2017-11-30T20:18:39.900Z,1.19
2017-11-30T20:21:11.155Z,1.16
2017-11-30T20:23:40.478Z,1.15
2017-11-30T20:26:11.517Z,1.16
2017-11-30T20:28:43.180Z,1.14
2017-11-30T20:31:12.068Z,1.13
2017-11-30T20:33:42.455Z,1.11
2017-11-30T20:36:13.432Z,1.09
2017-11-30T20:38:44.415Z,1.10
2017-11-30T20:41:16.869Z,1.09
2017-11-30T20:43:48.608Z,1.07
2017-11-30T20:46:17.296Z,1.08
2017-11-30T21:01:46.701Z,1.08
2017-11-30T21:04:14.876Z,1.07
2017-11-30T21:06:44.593Z,1.08
2017-11-30T21:09:14.487Z,1.08
2017-11-30T21:11:42.451Z,1.04
2017-11-30T21:14:15.884Z,1.04
2017-11-30T21:16:45.527Z,1.02
2017-11-30T21:19:14.254Z,1.01
2017-11-30T21:21:43.872Z,1.00
2017-11-30T21:24:15.838Z,0.95
2017-11-30T21:26:43.762Z,0.95
2017-11-30T21:29:12.339Z,0.95
2017-11-30T21:31:40.073Z,0.93
2017-11-30T21:34:11.748Z,0.92
2017-11-30T21:36:41.204Z,0.91
2017-11-30T21:39:14.264Z,0.91
2017-11-30T21:51:28.758Z,0.85
2017-11-30T21:53:56.938Z,0.79
2017-11-30T21:56:25.714Z,0.78
2017-11-30T21:58:56.581Z,0.77
2017-11-30T22:01:25.376Z,0.75
2017-11-30T22:03:54.628Z,0.72
2017-11-30T22:06:23.515Z,0.72
2017-11-30T22:08:51.228Z,0.70
2017-11-30T22:11:22.462Z,0.70
2017-11-30T22:13:51.852Z,0.70
2017-11-30T22:16:20.332Z,0.70
2017-11-30T22:18:48.009Z,0.71
2017-11-30T22:21:17.358Z,0.70
2017-11-30T22:23:46.115Z,0.72
2017-11-30T22:26:16.793Z,0.72
2017-11-30T22:28:46.184Z,0.74
2017-11-30T22:31:13.924Z,0.74
2017-11-30T22:33:41.613Z,0.73
2017-11-30T22:36:09.315Z,0.75
2017-11-30T22:38:39.745Z,0.77
2017-11-30T22:41:07.428Z,0.79
2017-11-30T22:43:35.081Z,0.78
2017-11-30T22:46:04.633Z,0.78
2017-11-30T22:48:34.174Z,0.82
2017-11-30T22:51:03.743Z,0.83
2017-11-30T22:53:31.458Z,0.83
2017-11-30T22:55:59.177Z,0.85
2017-11-30T22:58:28.474Z,0.84
2017-11-30T23:00:56.955Z,0.85
2017-11-30T23:03:25.532Z,0.85
2017-11-30T23:05:53.559Z,0.83
2017-11-30T23:08:24.614Z,0.86
2017-11-30T23:10:52.408Z,0.88
2017-11-30T23:13:20.083Z,0.92
2017-11-30T23:15:47.918Z,0.95
2017-11-30T23:18:16.032Z,0.95
2017-11-30T23:20:46.360Z,0.93
2017-11-30T23:23:16.426Z,0.92
2017-11-30T23:25:46.133Z,0.92
2017-11-30T23:28:15.486Z,0.95
2017-11-30T23:30:43.204Z,0.95
2017-11-30T23:33:12.594Z,0.94
2017-11-30T23:35:40.432Z,0.94
2017-11-30T23:38:08.109Z,0.96
2017-11-30T23:40:36.148Z,1.00
2017-11-30T23:43:05.582Z,1.00
2017-11-30T23:45:41.837Z,1.03
2017-11-30T23:48:09.598Z,1.04
2017-11-30T23:50:41.299Z,1.05
2017-11-30T23:53:10.775Z,1.03
2017-11-30T23:55:42.208Z,1.02
2017-11-30T23:58:10.076Z,1.02
